Time;durP1;ratioP1;P1;durP2;ratioP2;P2;SDS_P1;SDS_P2;PMS_P1;PMS_P2;Temp;Humidity;BMP_temperature;BMP_pressure;BME280_temperature;BME280_humidity;BME280_pressure;Samples;Min_cycle;Max_cycle;Signal;HPM_P1;HPM_P2
2024/01/22 00:00:39;;;;;;;;;;;;;;;-6.13;74.90;96738.09;5076517;28;1009;-60
2024/01/22 00:03:11;;;;;;;;;;;;;;;-6.26;75.81;96746.06;5076797;28;1482;-60
2024/01/22 00:05:44;;;;;;;;;;;;;;;-6.37;76.21;96747.06;5076482;28;953;-60
2024/01/22 00:08:20;;;;;;;;;;;;;;;-6.44;76.10;96748.03;5076671;28;929;-60
2024/01/22 00:10:52;;;;;;;;;;;;;;;-6.12;76.23;96749.34;5076114;28;985;-60
2024/01/22 00:13:24;;;;;;;;;;;;;;;-6.00;76.79;96748.31;5076206;28;1913;-60
2024/01/22 00:15:58;;;;;;;;;;;;;;;-5.59;75.46;96749.41;5076278;28;949;-60
2024/01/22 00:18:33;;;;;;;;;;;;;;;-5.74;73.67;96756.56;5076163;28;997;-60
2024/01/22 00:21:07;;;;;;;;;;;;;;;-6.19;73.76;96761.56;5076245;28;997;-60
2024/01/22 00:23:42;;;;;;;;;;;;;;;-6.51;75.83;96760.25;5075991;28;1325;-61
2024/01/22 00:26:16;;;;;;;;;;;;;;;-6.53;76.93;96761.16;5076183;28;953;-60
2024/01/22 00:28:50;;;;;;;;;;;;;;;-6.36;76.80;96763.53;5076288;28;930;-60
2024/01/22 00:31:24;;;;;;;;;;;;;;;-6.38;75.12;96767.91;5076095;28;1981;-60
2024/01/22 00:33:56;;;;;;;;;;;;;;;-6.76;75.19;96767.47;5076118;28;1717;-59
2024/01/22 00:36:30;;;;;;;;;;;;;;;-6.50;76.67;96788.00;5076199;28;920;-60
2024/01/22 00:39:06;;;;;;;;;;;;;;;-6.27;76.15;96779.06;5076024;28;940;-59
2024/01/22 00:41:40;;;;;;;;;;;;;;;-6.06;76.91;96775.31;5076125;28;996;-59
2024/01/22 00:44:14;;;;;;;;;;;;;;;-6.21;75.26;96772.91;5075757;28;933;-60
2024/01/22 00:46:47;;;;;;;;;;;;;;;-5.97;75.51;96776.94;5075961;28;981;-60
2024/01/22 00:49:22;;;;;;;;;;;;;;;-5.70;76.28;96780.84;5075632;28;937;-59
2024/01/22 00:51:56;;;;;;;;;;;;;;;-6.12;73.56;96786.66;5075779;28;1910;-60
2024/01/22 00:54:30;;;;;;;;;;;;;;;-6.54;73.67;96781.13;5035700;28;999;-60
2024/01/22 00:57:05;;;;;;;;;;;;;;;-6.55;75.88;96786.34;5035565;28;970;-60
2024/01/22 00:59:39;;;;;;;;;;;;;;;-6.18;76.85;96778.09;5035810;28;998;-59
2024/01/22 01:02:13;;;;;;;;;;;;;;;-5.92;76.58;96777.69;5035424;28;965;-59
2024/01/22 01:04:47;;;;;;;;;;;;;;;-6.13;74.89;96777.13;5035410;28;993;-60
2024/01/22 01:07:23;;;;;;;;;;;;;;;-6.28;75.40;96778.19;5035343;28;977;-60
2024/01/22 01:09:57;;;;;;;;;;;;;;;-6.52;74.74;96787.16;5035383;28;994;-60
2024/01/22 01:12:31;;;;;;;;;;;;;;;-6.92;75.57;96782.41;5035197;28;1914;-60
2024/01/22 01:15:06;;;;;;;;;;;;;;;-6.77;76.46;96775.28;5035216;28;966;-60
2024/01/22 01:17:40;;;;;;;;;;;;;;;-6.57;76.35;96778.53;5035280;28;938;-60
2024/01/22 01:20:14;;;;;;;;;;;;;;;-6.70;75.15;96779.56;5035145;28;981;-59
2024/01/22 01:22:49;;;;;;;;;;;;;;;-6.44;76.60;96771.44;5035430;28;954;-59
2024/01/22 01:25:23;;;;;;;;;;;;;;;-6.70;74.75;96767.41;5034841;28;1078;-59
2024/01/22 01:27:57;;;;;;;;;;;;;;;-6.92;76.41;96772.00;5035335;28;941;-59
2024/01/22 01:30:32;;;;;;;;;;;;;;;-6.85;76.80;96769.31;5034787;28;945;-59
2024/01/22 01:33:05;;;;;;;;;;;;;;;-6.71;75.23;96770.03;5034837;28;1999;-59
2024/01/22 01:35:43;;;;;;;;;;;;;;;-7.05;76.04;96766.94;5035039;28;1018;-59
2024/01/22 01:38:17;;;;;;;;;;;;;;;-7.16;76.63;96767.88;5035082;28;1000;-59
2024/01/22 01:40:51;;;;;;;;;;;;;;;-7.12;76.93;96760.91;5034765;28;987;-59
2024/01/22 01:43:26;;;;;;;;;;;;;;;-6.75;77.44;96761.41;5034730;28;910;-59
2024/01/22 01:46:00;;;;;;;;;;;;;;;-6.64;75.11;96763.00;5034919;28;948;-60
2024/01/22 01:48:35;;;;;;;;;;;;;;;-6.40;76.53;96757.50;5034877;28;985;-60
2024/01/22 01:51:10;;;;;;;;;;;;;;;-6.53;74.69;96756.78;5034685;28;1760;-60
2024/01/22 01:53:46;;;;;;;;;;;;;;;-6.85;75.08;96764.13;5063438;28;1906;-60
2024/01/22 01:56:20;;;;;;;;;;;;;;;-6.73;74.63;96757.03;5072880;28;917;-60
2024/01/22 01:58:55;;;;;;;;;;;;;;;-6.95;74.37;96755.56;5074613;28;975;-60
2024/01/22 02:01:29;;;;;;;;;;;;;;;-7.30;75.57;96762.81;5074213;28;913;-60
2024/01/22 02:04:03;;;;;;;;;;;;;;;-7.30;76.44;96762.81;5074281;28;1132;-60
2024/01/22 02:06:38;;;;;;;;;;;;;;;-7.39;76.32;96762.91;5074194;28;909;-60
2024/01/22 02:09:13;;;;;;;;;;;;;;;-7.43;76.64;96766.41;5074123;28;941;-59
2024/01/22 02:11:47;;;;;;;;;;;;;;;-7.43;76.40;96755.16;5074278;28;2042;-60
2024/01/22 02:14:21;;;;;;;;;;;;;;;-7.39;76.09;96752.50;5073924;28;1016;-60
2024/01/22 02:16:54;;;;;;;;;;;;;;;-7.28;75.97;96748.06;5073917;28;1008;-60
2024/01/22 02:19:30;;;;;;;;;;;;;;;-7.51;77.01;96748.28;5073894;28;976;-60
2024/01/22 02:22:04;;;;;;;;;;;;;;;-7.42;77.28;96749.06;5074165;28;917;-60
2024/01/22 02:24:38;;;;;;;;;;;;;;;-7.09;77.61;96745.31;5073765;28;1030;-60
2024/01/22 02:27:13;;;;;;;;;;;;;;;-6.98;75.22;96753.84;5073676;28;996;-60
2024/01/22 02:29:47;;;;;;;;;;;;;;;-7.01;76.44;96753.03;5074005;28;946;-60
2024/01/22 02:32:20;;;;;;;;;;;;;;;-7.26;75.33;96758.47;5073865;28;1906;-62
2024/01/22 02:34:53;;;;;;;;;;;;;;;-7.62;75.67;96757.06;5073686;28;996;-62
2024/01/22 02:37:26;;;;;;;;;;;;;;;-7.77;76.55;96753.69;5073693;28;1625;-62
2024/01/22 02:40:00;;;;;;;;;;;;;;;-7.62;77.07;96752.72;5073799;28;1007;-61
2024/01/22 02:42:34;;;;;;;;;;;;;;;-7.37;77.62;96760.28;5073477;28;987;-61
2024/01/22 02:45:09;;;;;;;;;;;;;;;-6.88;76.63;96750.28;5073613;28;1019;-62
2024/01/22 02:47:43;;;;;;;;;;;;;;;-6.86;73.82;96752.84;5073517;28;1134;-62
2024/01/22 02:50:16;;;;;;;;;;;;;;;-7.12;74.32;96763.53;5073466;28;1420;-62
2024/01/22 02:52:50;;;;;;;;;;;;;;;-7.48;74.69;96757.78;5066215;28;1909;-62
2024/01/22 02:55:24;;;;;;;;;;;;;;;-7.79;76.25;96760.63;5052315;28;937;-62
2024/01/22 02:57:59;;;;;;;;;;;;;;;-7.57;77.36;96758.75;5053662;28;1028;-62
2024/01/22 03:00:33;;;;;;;;;;;;;;;-7.33;76.94;96757.63;5053266;28;961;-62
2024/01/22 03:03:07;;;;;;;;;;;;;;;-7.30;77.25;96761.97;5053262;28;933;-62
2024/01/22 03:05:42;;;;;;;;;;;;;;;-7.12;76.03;96760.91;5053711;28;999;-62
2024/01/22 03:08:16;;;;;;;;;;;;;;;-7.55;75.66;96757.00;5053226;28;952;-62
2024/01/22 03:10:50;;;;;;;;;;;;;;;-7.66;76.66;96758.81;5053385;28;937;-62
2024/01/22 03:13:24;;;;;;;;;;;;;;;-7.70;77.45;96752.78;5053219;28;1906;-62
2024/01/22 03:15:58;;;;;;;;;;;;;;;-7.70;76.79;96747.56;5053301;28;1019;-62
2024/01/22 03:18:32;;;;;;;;;;;;;;;-7.43;76.45;96757.75;5052957;28;1004;-62
2024/01/22 03:21:05;;;;;;;;;;;;;;;-7.39;75.72;96762.91;5053257;28;918;-62
2024/01/22 03:23:40;;;;;;;;;;;;;;;-7.27;75.47;96765.38;5053082;28;1224;-62
2024/01/22 03:26:19;;;;;;;;;;;;;;;-7.15;75.33;96781.75;5052888;28;1015;-62
2024/01/22 03:28:51;;;;;;;;;;;;;;;-7.32;74.88;96769.78;5051951;28;1495;-61
2024/01/22 03:31:27;;;;;;;;;;;;;;;-7.54;75.95;96776.88;5053029;28;1008;-62
2024/01/22 03:34:01;;;;;;;;;;;;;;;-7.60;76.65;96779.53;5053222;28;929;-62
2024/01/22 03:36:35;;;;;;;;;;;;;;;-7.64;76.30;96775.25;5053015;28;1485;-61
2024/01/22 03:39:09;;;;;;;;;;;;;;;-7.75;75.51;96775.31;5053240;28;1000;-61
2024/01/22 03:41:42;;;;;;;;;;;;;;;-8.12;76.50;96778.16;5052963;28;921;-61
2024/01/22 03:44:16;;;;;;;;;;;;;;;-8.10;76.85;96794.59;5052699;28;988;-62
2024/01/22 03:46:50;;;;;;;;;;;;;;;-7.68;77.54;96787.38;5053042;28;948;-62
2024/01/22 03:49:23;;;;;;;;;;;;;;;-7.32;76.32;96795.78;5052773;28;1076;-61
2024/01/22 03:51:56;;;;;;;;;;;;;;;-7.63;74.90;96797.72;5052620;28;1981;-62
2024/01/22 03:54:29;;;;;;;;;;;;;;;-7.45;75.95;96791.53;5032980;28;901;-62
2024/01/22 03:57:06;;;;;;;;;;;;;;;-7.11;76.54;96799.91;5032842;28;992;-62
2024/01/22 03:59:41;;;;;;;;;;;;;;;-7.35;74.50;96789.72;5032992;28;992;-61
2024/01/22 04:02:15;;;;;;;;;;;;;;;-7.53;74.36;96795.91;5032772;28;949;-61
2024/01/22 04:04:47;;;;;;;;;;;;;;;-7.55;74.80;96800.25;5032697;28;945;-62
2024/01/22 04:07:20;;;;;;;;;;;;;;;-7.62;74.73;96796.88;5032552;28;1000;-62
2024/01/22 04:09:54;;;;;;;;;;;;;;;-7.83;75.00;96797.88;5032942;28;949;-60
2024/01/22 04:12:27;;;;;;;;;;;;;;;-7.78;76.91;96803.03;5032469;28;1978;-61
2024/01/22 04:14:59;;;;;;;;;;;;;;;-7.49;76.27;96792.44;5032737;28;925;-61
2024/01/22 04:17:32;;;;;;;;;;;;;;;-7.38;74.77;96794.94;5032763;28;960;-61
2024/01/22 04:20:07;;;;;;;;;;;;;;;-7.28;75.08;96792.25;5034795;28;997;-61
2024/01/22 04:22:39;;;;;;;;;;;;;;;-7.53;74.17;96790.72;5036363;28;1566;-60
2024/01/22 04:25:14;;;;;;;;;;;;;;;-7.66;74.50;96792.56;5035947;28;1184;-60
2024/01/22 04:27:45;;;;;;;;;;;;;;;-7.39;75.68;96780.25;5035170;28;1569;-61
2024/01/22 04:30:20;;;;;;;;;;;;;;;-7.23;74.71;96792.22;5036048;28;1813;-61
2024/01/22 04:32:54;;;;;;;;;;;;;;;-7.28;74.50;96783.63;5036290;28;1917;-61
2024/01/22 04:35:28;;;;;;;;;;;;;;;-7.34;74.22;96787.13;5035941;28;997;-61
2024/01/22 04:38:03;;;;;;;;;;;;;;;-7.85;73.69;96790.09;5036258;28;938;-61
2024/01/22 04:40:37;;;;;;;;;;;;;;;-7.89;74.48;96787.50;5035931;28;985;-61
2024/01/22 04:43:11;;;;;;;;;;;;;;;-8.12;73.90;96796.31;5036090;28;923;-61
2024/01/22 04:45:44;;;;;;;;;;;;;;;-8.21;75.81;96793.78;5035998;28;1009;-61
2024/01/22 04:48:18;;;;;;;;;;;;;;;-8.26;76.36;96796.38;5035637;28;1000;-62
2024/01/22 04:50:52;;;;;;;;;;;;;;;-8.13;76.80;96786.78;5035695;28;937;-60
2024/01/22 04:53:27;;;;;;;;;;;;;;;-8.25;75.50;96802.44;5047395;28;1914;-61
2024/01/22 04:56:02;;;;;;;;;;;;;;;-8.33;75.69;96801.59;5055751;28;977;-61
2024/01/22 04:58:33;;;;;;;;;;;;;;;-8.23;76.65;96798.13;5055490;28;1495;-61
2024/01/22 05:01:08;;;;;;;;;;;;;;;-7.92;75.73;96796.19;5055784;28;969;-62
2024/01/22 05:03:34;;;;;;;;;;;;;;;-8.02;74.49;96798.84;5055274;28;1037;-61
2024/01/22 05:06:00;;;;;;;;;;;;;;;-8.19;74.36;96799.81;5055664;28;1029;-60
2024/01/22 05:08:26;;;;;;;;;;;;;;;-7.94;76.61;96807.47;5055534;28;1055;-61
2024/01/22 05:10:52;;;;;;;;;;;;;;;-7.72;75.18;96811.66;5055562;28;996;-60
2024/01/22 05:13:17;;;;;;;;;;;;;;;-7.96;73.64;96804.88;5055043;28;1911;-60
2024/01/22 05:15:43;;;;;;;;;;;;;;;-8.03;75.40;96808.38;5055236;28;965;-59
2024/01/22 05:18:09;;;;;;;;;;;;;;;-7.66;76.42;96808.16;5055307;28;1025;-60
2024/01/22 05:20:35;;;;;;;;;;;;;;;-7.55;73.52;96813.25;5055435;28;1274;-61
2024/01/22 05:23:01;;;;;;;;;;;;;;;-8.03;74.16;96812.72;5055327;28;961;-60
2024/01/22 05:25:27;;;;;;;;;;;;;;;-8.21;74.28;96811.94;5054943;28;1074;-60
2024/01/22 05:27:53;;;;;;;;;;;;;;;-8.29;74.47;96811.09;5055135;28;977;-60
2024/01/22 05:30:19;;;;;;;;;;;;;;;-8.11;74.05;96810.16;5054728;28;973;-58
2024/01/22 05:32:45;;;;;;;;;;;;;;;-7.82;75.21;96812.56;5053843;28;1995;-58
2024/01/22 05:35:13;;;;;;;;;;;;;;;-7.89;73.98;96818.66;5054987;28;980;-58
2024/01/22 05:37:39;;;;;;;;;;;;;;;-7.84;73.93;96811.72;5054983;28;1011;-58
2024/01/22 05:40:08;;;;;;;;;;;;;;;-8.11;73.60;96808.41;5054969;28;995;-58
2024/01/22 05:42:34;;;;;;;;;;;;;;;-8.15;74.58;96814.50;5054812;28;1001;-58
2024/01/22 05:45:00;;;;;;;;;;;;;;;-8.01;74.17;96814.41;5054835;28;977;-58
2024/01/22 05:47:26;;;;;;;;;;;;;;;-8.25;74.84;96818.88;5054635;28;1123;-58
2024/01/22 05:49:52;;;;;;;;;;;;;;;-7.98;76.34;96821.34;5054706;28;1024;-58
2024/01/22 05:52:18;;;;;;;;;;;;;;;-7.86;75.08;96818.66;5053195;28;1902;-58
2024/01/22 05:54:45;;;;;;;;;;;;;;;-8.36;74.06;96818.06;5054845;28;1064;-58
2024/01/22 05:57:11;;;;;;;;;;;;;;;-8.51;75.13;96828.53;5054477;28;1040;-58
2024/01/22 05:59:38;;;;;;;;;;;;;;;-8.46;76.05;96821.56;5054771;28;972;-58
2024/01/22 06:02:04;;;;;;;;;;;;;;;-8.19;76.53;96823.19;5054414;28;1024;-58
2024/01/22 06:07:52;;;;;;;;;;;;;;;-7.98;75.19;96821.34;5054288;28;660;-58
2024/01/22 06:10:18;;;;;;;;;;;;;;;-7.86;75.98;96829.06;5054327;28;1119;-58
2024/01/22 06:12:44;;;;;;;;;;;;;;;-7.57;75.46;96830.59;5054243;28;1981;-59
2024/01/22 06:15:10;;;;;;;;;;;;;;;-7.91;73.26;96839.47;5054374;28;961;-59
2024/01/22 06:17:36;;;;;;;;;;;;;;;-8.32;73.51;96837.06;5053096;28;996;-58
2024/01/22 06:20:03;;;;;;;;;;;;;;;-8.65;74.31;96847.59;5054106;28;1088;-57
2024/01/22 06:22:29;;;;;;;;;;;;;;;-8.79;75.04;96841.56;5054238;28;965;-58
2024/01/22 06:24:55;;;;;;;;;;;;;;;-8.58;75.45;96851.00;5053875;28;1078;-58
2024/01/22 06:27:21;;;;;;;;;;;;;;;-8.37;74.85;96849.19;5053791;28;1259;-58
2024/01/22 06:29:47;;;;;;;;;;;;;;;-7.99;73.78;96853.34;5054001;28;1000;-58
2024/01/22 06:32:13;;;;;;;;;;;;;;;-6.62;68.50;96860.13;5053690;28;1882;-58
2024/01/22 06:34:40;;;;;;;;;;;;;;;-5.93;64.98;96869.75;5053754;28;1040;-59
2024/01/22 06:37:06;;;;;;;;;;;;;;;-4.49;61.67;96868.44;5053801;28;981;-58
2024/01/22 06:39:32;;;;;;;;;;;;;;;-2.28;53.68;96899.28;5053581;28;1107;-58
2024/01/22 06:41:58;;;;;;;;;;;;;;;-0.84;48.15;96912.63;5053601;28;988;-58
2024/01/22 06:44:24;;;;;;;;;;;;;;;-0.48;46.76;96917.63;5053601;28;1029;-59
2024/01/22 06:46:50;;;;;;;;;;;;;;;0.02;45.54;96922.06;5053716;28;1048;-59
2024/01/22 06:49:16;;;;;;;;;;;;;;;1.13;43.61;96929.38;5053760;28;993;-58
2024/01/22 06:51:42;;;;;;;;;;;;;;;2.29;42.36;96930.78;5053553;28;1989;-59
2024/01/22 06:54:08;;;;;;;;;;;;;;;2.82;40.40;96938.09;5071041;28;1161;-59
2024/01/22 06:56:34;;;;;;;;;;;;;;;2.99;39.42;96939.94;5072069;28;1047;-59
2024/01/22 06:59:01;;;;;;;;;;;;;;;3.64;38.66;96951.00;5074018;28;901;-59
2024/01/22 07:01:27;;;;;;;;;;;;;;;5.00;36.75;96960.81;5073184;28;1115;-59
2024/01/22 07:03:54;;;;;;;;;;;;;;;5.11;35.70;96978.81;5073275;28;1095;-59
2024/01/22 07:06:20;;;;;;;;;;;;;;;5.47;35.83;96973.28;5073120;28;1004;-59
2024/01/22 07:08:46;;;;;;;;;;;;;;;6.26;34.55;96992.78;5073283;28;1052;-59
2024/01/22 07:11:12;;;;;;;;;;;;;;;7.43;33.21;96997.16;5071904;28;1011;-59
2024/01/22 07:13:39;;;;;;;;;;;;;;;8.65;31.65;97002.63;5073435;28;1913;-58
2024/01/22 07:16:06;;;;;;;;;;;;;;;9.13;30.91;97000.22;5073311;28;972;-58
2024/01/22 07:18:33;;;;;;;;;;;;;;;9.34;30.29;97010.34;5073179;28;1043;-59
2024/01/22 07:20:59;;;;;;;;;;;;;;;9.58;30.04;97013.97;5073248;28;1011;-57
2024/01/22 07:23:25;;;;;;;;;;;;;;;9.97;29.42;97009.34;5073124;28;878;-58
2024/01/22 07:25:51;;;;;;;;;;;;;;;10.32;28.62;97018.44;5055088;28;1431;-58
2024/01/22 07:28:17;;;;;;;;;;;;;;;9.91;28.55;97007.13;5073354;28;1134;-58
2024/01/22 07:30:43;;;;;;;;;;;;;;;10.23;28.42;97006.59;5073199;28;1099;-58
2024/01/22 07:33:09;;;;;;;;;;;;;;;10.52;27.56;97016.97;5073222;28;1996;-59
2024/01/22 07:35:36;;;;;;;;;;;;;;;10.42;27.38;97026.66;5071949;28;1192;-58
2024/01/22 07:38:05;;;;;;;;;;;;;;;10.35;27.21;97031.59;5073292;28;973;-58
2024/01/22 07:40:31;;;;;;;;;;;;;;;10.52;26.56;97025.84;5072878;28;1100;-59
2024/01/22 07:42:57;;;;;;;;;;;;;;;11.57;26.09;97017.78;5073228;28;1134;-59
2024/01/22 07:45:23;;;;;;;;;;;;;;;12.80;24.60;97023.91;5073144;28;1043;-59
2024/01/22 07:47:49;;;;;;;;;;;;;;;13.19;24.44;97018.81;5072891;28;1099;-59
2024/01/22 07:50:15;;;;;;;;;;;;;;;12.61;24.35;97019.22;5073064;28;1052;-59
2024/01/22 07:52:41;;;;;;;;;;;;;;;11.62;25.75;97004.06;5067078;28;1918;-59
2024/01/22 07:55:07;;;;;;;;;;;;;;;11.56;26.54;96997.34;5053605;28;992;-59
2024/01/22 07:57:34;;;;;;;;;;;;;;;12.06;26.10;97008.53;5057004;28;961;-59
2024/01/22 08:00:00;;;;;;;;;;;;;;;11.80;26.77;97001.72;5056984;28;1015;-59
2024/01/22 08:02:27;;;;;;;;;;;;;;;10.80;28.26;96988.13;5056958;28;1027;-58
2024/01/22 08:04:53;;;;;;;;;;;;;;;10.56;28.65;96994.38;5056907;28;969;-58
2024/01/22 08:07:22;;;;;;;;;;;;;;;9.96;29.99;96977.44;5056616;28;1210;-59
2024/01/22 08:09:48;;;;;;;;;;;;;;;9.19;30.52;96974.91;5056868;28;988;-59
2024/01/22 08:12:14;;;;;;;;;;;;;;;7.64;32.75;96967.47;5056783;28;1995;-58
2024/01/22 08:14:40;;;;;;;;;;;;;;;5.00;36.94;96952.00;5056712;28;984;-58
2024/01/22 08:17:06;;;;;;;;;;;;;;;3.04;40.09;96934.47;5056598;28;1064;-58
2024/01/22 08:19:34;;;;;;;;;;;;;;;1.90;44.63;96923.66;5056583;28;972;-58
2024/01/22 08:22:02;;;;;;;;;;;;;;;0.68;47.20;96904.75;5056337;28;1032;-58
2024/01/22 08:24:29;;;;;;;;;;;;;;;0.21;50.65;96896.84;5056037;28;1240;-59
2024/01/22 08:26:54;;;;;;;;;;;;;;;0.78;49.90;96892.97;5056456;28;1074;-58
2024/01/22 08:29:20;;;;;;;;;;;;;;;0.43;50.35;96889.00;5056318;28;1144;-58
2024/01/22 08:31:47;;;;;;;;;;;;;;;-0.08;49.93;96876.81;5056125;28;1910;-58
2024/01/22 08:34:13;;;;;;;;;;;;;;;-0.32;53.09;96868.88;5056086;28;1048;-59
2024/01/22 08:36:39;;;;;;;;;;;;;;;-0.59;54.37;96862.78;5056364;28;972;-59
2024/01/22 08:39:06;;;;;;;;;;;;;;;-0.30;52.99;96866.22;5055908;28;980;-59
2024/01/22 08:41:32;;;;;;;;;;;;;;;0.42;51.81;96862.75;5056224;28;1052;-59
2024/01/22 08:43:59;;;;;;;;;;;;;;;0.45;51.77;96871.38;5055927;28;1037;-59
2024/01/22 08:46:26;;;;;;;;;;;;;;;-0.03;52.19;96864.38;5055752;28;1037;-60
2024/01/22 08:48:52;;;;;;;;;;;;;;;-0.01;52.56;96852.03;5055971;28;1043;-59
2024/01/22 08:51:18;;;;;;;;;;;;;;;0.26;52.81;96851.94;5055708;28;1036;-60
2024/01/22 08:53:44;;;;;;;;;;;;;;;0.90;50.20;96846.84;5070052;28;1926;-60
2024/01/22 08:56:10;;;;;;;;;;;;;;;0.91;48.22;96843.31;5075983;28;968;-59
2024/01/22 08:58:36;;;;;;;;;;;;;;;1.28;47.67;96849.72;5076019;28;965;-60
2024/01/22 09:01:05;;;;;;;;;;;;;;;2.20;45.91;96846.72;5075812;28;1035;-60
2024/01/22 09:03:31;;;;;;;;;;;;;;;2.04;46.11;96859.72;5075535;28;1124;-60
2024/01/22 09:05:57;;;;;;;;;;;;;;;1.93;46.41;96858.41;5075388;28;1072;-60
2024/01/22 09:08:23;;;;;;;;;;;;;;;1.82;47.33;96865.06;5075387;28;1234;-60
2024/01/22 09:10:49;;;;;;;;;;;;;;;2.11;45.82;96863.81;5075430;28;1079;-61
2024/01/22 09:13:15;;;;;;;;;;;;;;;1.93;46.66;96862.81;5075610;28;1906;-58
2024/01/22 09:15:41;;;;;;;;;;;;;;;2.29;44.40;96855.06;5074311;28;968;-60
2024/01/22 09:18:07;;;;;;;;;;;;;;;2.96;42.84;96859.97;5075550;28;1056;-60
2024/01/22 09:20:33;;;;;;;;;;;;;;;3.27;41.69;96854.06;5075527;28;941;-60
2024/01/22 09:23:00;;;;;;;;;;;;;;;2.95;41.27;96852.97;5075413;28;1079;-59
2024/01/22 09:25:26;;;;;;;;;;;;;;;2.71;43.05;96854.06;5074900;28;1080;-59
2024/01/22 09:27:52;;;;;;;;;;;;;;;2.11;44.10;96838.28;5075012;28;1085;-59
2024/01/22 09:30:18;;;;;;;;;;;;;;;2.15;44.73;96836.38;5075185;28;1035;-60
2024/01/22 09:32:45;;;;;;;;;;;;;;;2.25;44.80;96835.03;5075181;28;1906;-59
2024/01/22 09:35:11;;;;;;;;;;;;;;;2.80;43.58;96838.69;5073453;28;1054;-59
2024/01/22 09:37:37;;;;;;;;;;;;;;;3.05;42.76;96848.94;5054879;28;1024;-59
2024/01/22 09:40:06;;;;;;;;;;;;;;;2.90;41.69;96851.41;5055324;28;978;-58
2024/01/22 09:42:33;;;;;;;;;;;;;;;2.98;43.10;96850.16;5055157;28;977;-59
2024/01/22 09:44:59;;;;;;;;;;;;;;;3.03;43.39;96841.09;5055147;28;1012;-58
2024/01/22 09:47:25;;;;;;;;;;;;;;;3.19;44.51;96843.00;5054954;28;1016;-59
2024/01/22 09:49:51;;;;;;;;;;;;;;;3.89;44.14;96842.13;5054873;28;952;-59
2024/01/22 09:52:17;;;;;;;;;;;;;;;3.90;42.79;96842.97;5056821;28;1906;-59
2024/01/22 09:54:44;;;;;;;;;;;;;;;3.63;43.48;96837.31;5074860;28;1036;-59
2024/01/22 09:57:17;;;;;;;;;;;;;;;3.59;42.32;96836.63;5074604;28;1099;-59
2024/01/22 09:59:43;;;;;;;;;;;;;;;3.90;42.77;96837.69;5075094;28;1008;-58
2024/01/22 10:02:14;;;;;;;;;;;;;;;4.11;43.41;96830.44;5074440;28;918;-58
2024/01/22 10:04:40;;;;;;;;;;;;;;;3.98;42.34;96830.19;5074427;28;1051;-58
2024/01/22 10:07:06;;;;;;;;;;;;;;;3.79;41.44;96827.66;5074348;28;1028;-58
2024/01/22 10:09:33;;;;;;;;;;;;;;;3.77;42.87;96820.72;5074203;28;1016;-58
2024/01/22 10:11:59;;;;;;;;;;;;;;;4.28;42.44;96817.16;5072995;28;1910;-58
2024/01/22 10:14:31;;;;;;;;;;;;;;;4.34;40.91;96826.56;5074148;28;1217;-57
2024/01/22 10:17:18;;;;;;;;;;;;;;;4.38;39.27;96828.13;5073675;28;1007;-58
2024/01/22 10:19:48;;;;;;;;;;;;;;;3.96;39.79;96820.63;5074076;28;1287;-58
2024/01/22 10:22:21;;;;;;;;;;;;;;;4.22;40.05;96814.00;5074314;28;1047;-58
2024/01/22 10:25:00;;;;;;;;;;;;;;;4.68;40.27;96819.44;5073901;28;1326;-58
2024/01/22 10:27:26;;;;;;;;;;;;;;;4.35;39.30;96822.97;5073933;28;910;-58
2024/01/22 10:30:07;;;;;;;;;;;;;;;4.52;39.27;96815.94;5074137;28;1052;-58
2024/01/22 10:32:33;;;;;;;;;;;;;;;4.29;41.10;96808.28;5074064;28;1909;-58
2024/01/22 10:34:59;;;;;;;;;;;;;;;4.64;41.74;96802.00;5073764;28;1095;-59
2024/01/22 10:37:25;;;;;;;;;;;;;;;5.20;40.89;96811.25;5073686;28;1032;-57
2024/01/22 10:40:00;;;;;;;;;;;;;;;5.03;40.55;96808.69;5073764;28;1032;-58
2024/01/22 10:42:27;;;;;;;;;;;;;;;4.47;40.65;96797.63;5073497;28;1091;-57
2024/01/22 10:44:55;;;;;;;;;;;;;;;4.85;40.70;96800.81;5073878;28;1238;-58
2024/01/22 10:47:21;;;;;;;;;;;;;;;4.94;42.02;96802.09;5073445;28;1047;-58
2024/01/22 10:49:47;;;;;;;;;;;;;;;4.99;39.20;96794.75;5073706;28;1052;-58
2024/01/22 10:52:13;;;;;;;;;;;;;;;5.46;39.25;96801.78;5070460;28;1905;-58
2024/01/22 10:54:39;;;;;;;;;;;;;;;5.26;39.96;96780.84;5053513;28;1044;-58
2024/01/22 10:57:09;;;;;;;;;;;;;;;4.83;38.07;96784.13;5053480;28;991;-58
2024/01/22 10:59:36;;;;;;;;;;;;;;;4.71;38.08;96773.38;5053831;28;965;-58
2024/01/22 11:02:04;;;;;;;;;;;;;;;5.07;39.23;96768.66;5053698;28;1047;-58
2024/01/22 11:04:32;;;;;;;;;;;;;;;5.27;39.29;96756.03;5053511;28;977;-58
2024/01/22 11:07:00;;;;;;;;;;;;;;;5.43;39.12;96756.84;5053630;28;1051;-58
2024/01/22 11:09:33;;;;;;;;;;;;;;;5.33;37.99;96763.66;5053280;28;1011;-58
2024/01/22 11:12:02;;;;;;;;;;;;;;;5.51;38.49;96768.81;5053537;28;2005;-58
2024/01/22 11:14:29;;;;;;;;;;;;;;;5.39;39.33;96765.09;5053113;28;1024;-58
2024/01/22 11:16:55;;;;;;;;;;;;;;;5.19;38.83;96761.78;5053208;28;925;-57
2024/01/22 11:19:22;;;;;;;;;;;;;;;5.46;38.75;96748.72;5053461;28;983;-58
2024/01/22 11:21:49;;;;;;;;;;;;;;;5.48;38.32;96749.47;5053532;28;1047;-58
2024/01/22 11:24:17;;;;;;;;;;;;;;;5.76;38.51;96741.66;5052827;28;1082;-58
2024/01/22 11:26:44;;;;;;;;;;;;;;;5.41;37.67;96744.63;5053402;28;1039;-58
2024/01/22 11:29:14;;;;;;;;;;;;;;;5.42;37.06;96741.88;5052119;28;1079;-58
2024/01/22 11:31:40;;;;;;;;;;;;;;;5.29;36.95;96740.88;5053199;28;962;-57
2024/01/22 11:34:06;;;;;;;;;;;;;;;5.20;37.45;96734.34;5053062;28;1981;-57
2024/01/22 11:36:58;;;;;;;;;;;;;;;5.39;39.43;96730.59;5053047;28;1070;-57
2024/01/22 11:39:42;;;;;;;;;;;;;;;5.06;39.21;96724.50;5050485;28;1785;-57
2024/01/22 11:42:17;;;;;;;;;;;;;;;5.42;39.18;96712.69;5053120;28;1036;-57
2024/01/22 11:44:45;;;;;;;;;;;;;;;5.55;38.63;96714.63;5052990;28;1193;-58
2024/01/22 11:47:12;;;;;;;;;;;;;;;5.52;39.54;96702.41;5052816;28;1041;-57
2024/01/22 11:49:38;;;;;;;;;;;;;;;5.66;39.96;96710.38;5053006;28;1084;-58
2024/01/22 11:52:10;;;;;;;;;;;;;;;5.16;38.05;96710.72;5053677;28;1990;-58
2024/01/22 11:54:37;;;;;;;;;;;;;;;4.67;38.34;96706.47;5073537;28;972;-58
2024/01/22 11:57:03;;;;;;;;;;;;;;;4.85;38.12;96697.44;5072039;28;969;-58
2024/01/22 11:59:29;;;;;;;;;;;;;;;5.07;39.16;96694.41;5073093;28;1015;-58
2024/01/22 12:02:10;;;;;;;;;;;;;;;5.13;38.60;96698.50;5072800;28;1032;-57
2024/01/22 12:04:36;;;;;;;;;;;;;;;5.61;38.02;96687.72;5072806;28;1036;-57
2024/01/22 12:07:02;;;;;;;;;;;;;;;5.40;37.84;96693.34;5073072;28;989;-57
2024/01/22 12:09:34;;;;;;;;;;;;;;;5.36;38.79;96681.22;5072753;28;1036;-57
2024/01/22 12:12:04;;;;;;;;;;;;;;;5.16;37.53;96692.16;5073044;28;1981;-57
2024/01/22 12:14:30;;;;;;;;;;;;;;;5.39;37.73;96682.84;5059616;28;1252;-56
2024/01/22 12:17:02;;;;;;;;;;;;;;;5.45;35.61;96685.13;5042285;28;1206;-57
2024/01/22 12:19:29;;;;;;;;;;;;;;;5.33;36.62;96675.25;5041363;28;1363;-57
2024/01/22 12:21:55;;;;;;;;;;;;;;;5.68;36.95;96676.63;5041329;28;1248;-57
2024/01/22 12:24:21;;;;;;;;;;;;;;;5.59;35.74;96676.34;5042964;28;1288;-58
2024/01/22 12:26:51;;;;;;;;;;;;;;;5.45;37.61;96670.06;5041282;28;1233;-57
2024/01/22 12:29:24;;;;;;;;;;;;;;;5.48;37.88;96669.00;5042427;28;1338;-57
2024/01/22 12:32:02;;;;;;;;;;;;;;;5.12;37.69;96672.91;5043114;28;1117;-57
2024/01/22 12:34:28;;;;;;;;;;;;;;;5.43;38.13;96664.00;5043367;28;1316;-58
2024/01/22 12:36:54;;;;;;;;;;;;;;;5.55;36.37;96670.34;5041661;28;1241;-57
2024/01/22 12:39:21;;;;;;;;;;;;;;;5.69;36.71;96664.19;5041432;28;1232;-57
2024/01/22 12:41:47;;;;;;;;;;;;;;;5.50;36.59;96669.78;5045791;28;1280;-57
2024/01/22 12:44:13;;;;;;;;;;;;;;;5.07;35.61;96678.50;5045221;28;1118;-58
2024/01/22 12:46:39;;;;;;;;;;;;;;;4.94;35.60;96682.81;5044161;28;1240;-57
2024/01/22 12:49:05;;;;;;;;;;;;;;;5.02;37.93;96671.75;5046572;28;1320;-57
2024/01/22 12:51:31;;;;;;;;;;;;;;;5.23;37.81;96662.53;5044563;28;1315;-58
2024/01/22 12:53:57;;;;;;;;;;;;;;;5.37;37.24;96655.53;5046953;28;1918;-58
2024/01/22 12:56:23;;;;;;;;;;;;;;;5.44;37.51;96651.56;5046385;28;1300;-57
2024/01/22 12:58:49;;;;;;;;;;;;;;;5.20;39.22;96653.94;5043082;28;1303;-58
2024/01/22 13:01:15;;;;;;;;;;;;;;;4.96;39.14;96648.25;5044555;28;1335;-58
2024/01/22 13:03:41;;;;;;;;;;;;;;;4.97;38.78;96647.31;5046056;28;1292;-58
2024/01/22 13:06:07;;;;;;;;;;;;;;;4.99;39.24;96638.34;5044118;28;1553;-58
2024/01/22 13:08:33;;;;;;;;;;;;;;;5.00;39.22;96645.31;5045631;28;1267;-58
2024/01/22 13:10:59;;;;;;;;;;;;;;;5.13;39.53;96649.94;5045356;28;1213;-58
2024/01/22 13:13:25;;;;;;;;;;;;;;;5.09;38.93;96634.19;5044082;28;2000;-58
2024/01/22 13:15:52;;;;;;;;;;;;;;;4.99;37.86;96646.28;5045900;28;1252;-58
2024/01/22 13:18:18;;;;;;;;;;;;;;;4.86;37.26;96643.50;5044923;28;1277;-58
2024/01/22 13:20:47;;;;;;;;;;;;;;;4.92;38.31;96638.78;5044077;28;1560;-58